Nolensville, Tennessee
Current Conditions -  °F | °C
As of 4:53 PM on Tuesday 25 Nov 2014 (Local Time) from KBNA Reporting Station
Overcast Overcast  
Wind Chill: 41°   Ceiling: 17000
Heat Index: 45°   Visibility: 10mi
Dew Point: 25°   Wind: 7mph
Humidity: 46%   Direction: 360°N
Pressure: 30.12"   Gusts: NA
Location:  35.95°N, 86.67°W
Report Text: KBNA 252253Z 36006KT 10SM BKN170 OVC250 07/M04 A3012 RMK AO2 SLP203 T00721039
Loading
Personal Weather Stations






























Interactive Weather Map New forecast layout! Learn more

10-Day Weather Forecast

Advertisements
Track Severe Weather on mobile